Time;durP1;ratioP1;P1;durP2;ratioP2;P2;SDS_P1;SDS_P2;PMS_P1;PMS_P2;Temp;Humidity;BMP_temperature;BMP_pressure;BME280_temperature;BME280_humidity;BME280_pressure;Samples;Min_cycle;Max_cycle;Signal;HPM_P1;HPM_P2
2024/02/01 00:01:03;;;;;;;21.80;13.23;;;;;;;;;;10107658;28;20044;-71
2024/02/01 00:05:55;;;;;;;15.80;12.77;;;;;;;;;;10106437;28;20071;-71
2024/02/01 00:10:47;;;;;;;20.50;14.60;;;;;;;;;;10108619;28;20072;-71
2024/02/01 00:15:39;;;;;;;15.82;11.98;;;;;;;;;;10106884;28;20044;-71
2024/02/01 00:20:31;;;;;;;19.63;14.18;;;;;;;;;;10105953;28;20076;-71
2024/02/01 00:25:23;;;;;;;19.27;12.52;;;;;;;;;;10107028;28;20099;-71
2024/02/01 00:30:17;;;;;;;15.18;10.50;;;;;;;;;;10106499;28;20049;-71
2024/02/01 00:35:09;;;;;;;16.67;11.85;;;;;;;;;;10105272;28;20091;-71
2024/02/01 00:40:01;;;;;;;16.67;11.10;;;;;;;;;;10105775;28;20107;-71
2024/02/01 00:44:53;;;;;;;21.00;11.40;;;;;;;;;;10106492;28;20112;-71
2024/02/01 00:49:45;;;;;;;12.13;8.95;;;;;;;;;;10106162;28;20039;-72
2024/02/01 00:54:37;;;;;;;14.05;10.48;;;;;;;;;;10105494;28;20041;-71
2024/02/01 00:59:29;;;;;;;14.02;10.32;;;;;;;;;;10101922;28;20044;-71
2024/02/01 01:04:21;;;;;;;14.18;10.13;;;;;;;;;;10104546;28;20056;-71
2024/02/01 01:09:13;;;;;;;15.35;11.05;;;;;;;;;;10096698;28;20065;-71
2024/02/01 01:14:05;;;;;;;17.77;10.23;;;;;;;;;;10105391;28;20144;-71
2024/02/01 01:18:57;;;;;;;14.73;9.70;;;;;;;;;;10103606;28;20475;-71
2024/02/01 01:23:49;;;;;;;14.90;10.05;;;;;;;;;;10101027;28;20122;-71
2024/02/01 01:28:41;;;;;;;11.20;8.60;;;;;;;;;;10104413;28;20033;-71
2024/02/01 01:33:34;;;;;;;16.15;10.43;;;;;;;;;;10103508;28;20059;-72
2024/02/01 01:38:26;;;;;;;13.05;9.82;;;;;;;;;;10093412;28;20468;-72
2024/02/01 01:43:18;;;;;;;17.75;11.43;;;;;;;;;;10104055;28;20131;-71
2024/02/01 01:48:10;;;;;;;14.02;8.82;;;;;;;;;;10103444;28;20502;-71
2024/02/01 01:53:02;;;;;;;12.70;8.45;;;;;;;;;;10102846;28;20041;-71
2024/02/01 01:57:54;;;;;;;16.05;9.43;;;;;;;;;;10102152;28;20488;-72
2024/02/01 02:02:47;;;;;;;11.80;9.07;;;;;;;;;;10101743;28;20041;-71
2024/02/01 02:07:39;;;;;;;13.30;8.82;;;;;;;;;;10101973;28;20041;-72
2024/02/01 02:12:31;;;;;;;10.27;7.40;;;;;;;;;;10100432;28;20037;-72
2024/02/01 02:17:25;;;;;;;12.20;8.45;;;;;;;;;;10101734;28;20049;-72
2024/02/01 02:22:18;;;;;;;20.02;9.90;;;;;;;;;;10102519;28;20044;-71
2024/02/01 02:27:10;;;;;;;13.93;8.98;;;;;;;;;;10102026;28;20083;-72
2024/02/01 02:32:02;;;;;;;11.35;8.52;;;;;;;;;;10102625;28;20044;-72
2024/02/01 02:36:54;;;;;;;12.95;8.35;;;;;;;;;;10101819;28;20128;-71
2024/02/01 02:41:46;;;;;;;13.45;9.05;;;;;;;;;;10100771;28;20052;-71
2024/02/01 02:46:38;;;;;;;11.32;7.95;;;;;;;;;;10101621;28;20047;-71
2024/02/01 02:51:30;;;;;;;11.32;8.18;;;;;;;;;;10101545;28;20545;-71
2024/02/01 02:56:23;;;;;;;14.98;9.73;;;;;;;;;;10101652;28;20099;-71
2024/02/01 03:01:15;;;;;;;12.95;8.32;;;;;;;;;;10100806;28;20047;-72
2024/02/01 03:06:10;;;;;;;10.98;7.03;;;;;;;;;;10101427;28;20163;-72
2024/02/01 03:11:02;;;;;;;15.38;9.23;;;;;;;;;;10101575;28;20432;-71
2024/02/01 03:15:55;;;;;;;9.32;7.03;;;;;;;;;;10102310;28;20045;-72
2024/02/01 03:20:49;;;;;;;9.25;7.00;;;;;;;;;;10101355;28;20045;-71
2024/02/01 03:25:41;;;;;;;9.63;7.82;;;;;;;;;;10099535;28;20091;-71
2024/02/01 03:30:36;;;;;;;8.57;6.80;;;;;;;;;;10101098;28;20061;-71
2024/02/01 03:35:31;;;;;;;10.15;7.38;;;;;;;;;;10100389;28;20399;-71
2024/02/01 03:40:24;;;;;;;11.82;7.65;;;;;;;;;;10100598;28;20080;-71
2024/02/01 03:45:16;;;;;;;9.38;7.45;;;;;;;;;;10098964;28;20129;-71
2024/02/01 03:50:08;;;;;;;10.50;7.40;;;;;;;;;;10100080;28;20098;-72
2024/02/01 03:55:01;;;;;;;8.85;7.57;;;;;;;;;;10104556;28;20053;-72
2024/02/01 03:59:53;;;;;;;11.75;7.82;;;;;;;;;;10108082;28;20416;-71
2024/02/01 04:04:45;;;;;;;11.13;7.95;;;;;;;;;;10107097;28;20045;-72
2024/02/01 04:09:37;;;;;;;10.18;7.60;;;;;;;;;;10108054;28;20037;-72
2024/02/01 04:14:29;;;;;;;8.15;6.32;;;;;;;;;;10107374;28;20061;-72
2024/02/01 04:19:21;;;;;;;9.55;6.75;;;;;;;;;;10107238;28;20072;-72
2024/02/01 04:24:13;;;;;;;11.18;7.47;;;;;;;;;;10106731;28;20056;-72
2024/02/01 04:29:05;;;;;;;12.90;7.40;;;;;;;;;;10107334;28;20049;-71
2024/02/01 04:33:58;;;;;;;12.25;8.23;;;;;;;;;;10105565;28;20071;-72
2024/02/01 04:38:50;;;;;;;19.10;9.70;;;;;;;;;;10107307;28;20183;-72
2024/02/01 04:43:43;;;;;;;14.65;8.75;;;;;;;;;;10106315;28;20099;-72
2024/02/01 04:48:35;;;;;;;16.65;9.70;;;;;;;;;;10104599;28;20048;-72
2024/02/01 04:53:30;;;;;;;15.07;8.90;;;;;;;;;;10106006;28;20111;-71
2024/02/01 04:58:22;;;;;;;11.80;8.10;;;;;;;;;;10104375;28;20051;-72
2024/02/01 05:03:15;;;;;;;14.77;8.25;;;;;;;;;;10106734;28;20118;-72
2024/02/01 05:08:07;;;;;;;8.63;5.93;;;;;;;;;;10104619;28;20053;-71
2024/02/01 05:12:59;;;;;;;11.30;6.95;;;;;;;;;;10105538;28;20068;-72
2024/02/01 05:17:51;;;;;;;9.88;6.53;;;;;;;;;;10105193;28;20053;-72
2024/02/01 05:22:43;;;;;;;10.20;7.28;;;;;;;;;;10105002;28;20041;-72
2024/02/01 05:27:36;;;;;;;9.45;7.00;;;;;;;;;;10104235;28;20077;-72
2024/02/01 05:32:27;;;;;;;8.80;6.50;;;;;;;;;;10104620;28;20075;-73
2024/02/01 05:37:19;;;;;;;8.90;6.47;;;;;;;;;;10104101;28;20098;-72
2024/02/01 05:42:13;;;;;;;9.02;7.97;;;;;;;;;;10103447;28;20139;-72
2024/02/01 05:47:05;;;;;;;8.88;6.65;;;;;;;;;;10103836;28;20049;-72
2024/02/01 05:52:02;;;;;;;8.63;7.28;;;;;;;;;;10103920;28;20340;-72
2024/02/01 05:56:55;;;;;;;55.80;49.85;;;;;;;;;;10102932;28;20045;-72
2024/02/01 06:01:47;;;;;;;22.52;20.38;;;;;;;;;;10103656;28;20472;-72
2024/02/01 06:06:43;;;;;;;20.13;18.00;;;;;;;;;;10101330;28;20056;-72
2024/02/01 06:11:35;;;;;;;15.15;10.98;;;;;;;;;;10099220;28;20474;-73
2024/02/01 06:16:27;;;;;;;14.88;12.43;;;;;;;;;;10100737;28;20126;-72
2024/02/01 06:21:19;;;;;;;50.05;40.83;;;;;;;;;;10099981;28;20365;-73
2024/02/01 06:26:19;;;;;;;31.05;22.77;;;;;;;;;;10091253;28;20041;-74
2024/02/01 06:31:13;;;;;;;29.80;19.13;;;;;;;;;;10095716;28;20044;-74
2024/02/01 06:36:07;;;;;;;13.57;8.70;;;;;;;;;;10085326;28;20040;-73
2024/02/01 06:41:17;;;;;;;12.90;7.47;;;;;;;;;;10066572;28;20056;-73
2024/02/01 06:46:22;;;;;;;30.63;17.08;;;;;;;;;;10087531;28;20128;-73
2024/02/01 06:51:21;;;;;;;24.00;14.10;;;;;;;;;;10086087;28;20098;-73
2024/02/01 06:56:28;;;;;;;17.67;11.13;;;;;;;;;;10076463;28;20048;-73
2024/02/01 07:01:51;;;;;;;23.98;15.45;;;;;;;;;;10090715;28;20098;-73
2024/02/01 07:07:05;;;;;;;43.20;24.95;;;;;;;;;;10084041;28;20466;-75
2024/02/01 07:12:15;;;;;;;34.33;22.98;;;;;;;;;;10094957;28;20132;-74
2024/02/01 07:22:34;;;;;;;10.00;7.60;;;;;;;;;;10076844;28;20045;-74
2024/02/01 07:58:49;;;;;;;13.48;8.75;;;;;;;;;;10082358;28;20417;-75
2024/02/01 08:04:12;;;;;;;12.40;9.43;;;;;;;;;;10094762;28;20047;-72
2024/02/01 08:09:11;;;;;;;12.93;8.57;;;;;;;;;;10096362;28;20440;-72
2024/02/01 08:14:06;;;;;;;13.43;9.20;;;;;;;;;;10100554;28;20379;-73
2024/02/01 08:18:59;;;;;;;21.15;11.88;;;;;;;;;;10095619;28;20390;-73
2024/02/01 08:23:54;;;;;;;14.52;9.57;;;;;;;;;;10105585;28;20103;-73
2024/02/01 08:28:46;;;;;;;22.10;12.65;;;;;;;;;;10105040;28;20136;-73
2024/02/01 08:33:42;;;;;;;22.08;10.50;;;;;;;;;;10106477;28;20149;-73
2024/02/01 08:38:34;;;;;;;14.43;8.82;;;;;;;;;;10084062;28;20040;-72
2024/02/01 08:43:26;;;;;;;17.35;9.32;;;;;;;;;;10105917;28;20084;-72
2024/02/01 08:48:20;;;;;;;17.67;10.93;;;;;;;;;;10103750;28;20037;-72
2024/02/01 08:53:13;;;;;;;18.33;12.48;;;;;;;;;;10106118;28;20041;-73
2024/02/01 08:58:09;;;;;;;16.65;13.00;;;;;;;;;;10103946;28;20067;-73
2024/02/01 09:03:05;;;;;;;21.85;11.95;;;;;;;;;;10105161;28;20044;-72
2024/02/01 09:07:58;;;;;;;18.48;11.65;;;;;;;;;;10101366;28;20036;-73
2024/02/01 09:12:50;;;;;;;21.67;13.88;;;;;;;;;;10103847;28;20041;-73
2024/02/01 09:17:46;;;;;;;17.25;10.77;;;;;;;;;;10104078;28;20083;-73
2024/02/01 09:22:38;;;;;;;19.90;11.25;;;;;;;;;;10104170;28;20442;-72
2024/02/01 09:27:30;;;;;;;17.65;10.38;;;;;;;;;;10104104;28;20053;-72
2024/02/01 09:32:22;;;;;;;20.88;11.60;;;;;;;;;;10104384;28;20441;-72
2024/02/01 09:37:22;;;;;;;16.95;12.05;;;;;;;;;;10101313;28;20519;-73
2024/02/01 09:42:18;;;;;;;16.10;10.32;;;;;;;;;;10097923;28;20067;-73
2024/02/01 09:47:12;;;;;;;20.13;10.30;;;;;;;;;;10092679;28;20417;-73
2024/02/01 09:52:09;;;;;;;13.50;9.60;;;;;;;;;;10101962;28;20432;-73
2024/02/01 09:57:13;;;;;;;14.65;9.48;;;;;;;;;;10101786;28;20049;-72
2024/02/01 10:02:09;;;;;;;11.40;7.80;;;;;;;;;;10101243;28;20045;-72
2024/02/01 10:07:01;;;;;;;21.10;8.80;;;;;;;;;;10101301;28;20419;-73
2024/02/01 10:11:56;;;;;;;14.52;7.78;;;;;;;;;;10098554;28;20049;-73
2024/02/01 10:16:48;;;;;;;14.43;8.15;;;;;;;;;;10098943;28;20387;-73
2024/02/01 10:21:40;;;;;;;16.30;8.45;;;;;;;;;;10100833;28;20060;-73
2024/02/01 10:26:47;;;;;;;11.48;8.77;;;;;;;;;;10098100;28;20044;-75
2024/02/01 10:31:40;;;;;;;13.60;8.98;;;;;;;;;;10102242;28;20379;-73
2024/02/01 10:36:36;;;;;;;11.07;7.80;;;;;;;;;;10098450;28;20482;-74
2024/02/01 10:41:32;;;;;;;17.15;8.77;;;;;;;;;;10085827;28;20403;-73
2024/02/01 10:46:32;;;;;;;13.98;9.73;;;;;;;;;;10073093;28;20156;-73
2024/02/01 10:51:24;;;;;;;14.55;10.18;;;;;;;;;;10067653;28;20051;-73
2024/02/01 10:56:17;;;;;;;15.02;11.30;;;;;;;;;;10090278;28;20073;-73
2024/02/01 11:01:12;;;;;;;21.98;11.65;;;;;;;;;;10102449;28;20048;-73
2024/02/01 11:06:04;;;;;;;18.88;13.90;;;;;;;;;;10093592;28;20400;-73
2024/02/01 11:11:00;;;;;;;16.92;12.98;;;;;;;;;;10099151;28;20048;-73
2024/02/01 11:15:56;;;;;;;16.58;11.80;;;;;;;;;;10093610;28;20120;-74
2024/02/01 11:20:57;;;;;;;20.67;12.38;;;;;;;;;;10094098;28;20047;-74
2024/02/01 11:25:55;;;;;;;17.65;14.15;;;;;;;;;;10099940;28;20076;-74
2024/02/01 11:30:52;;;;;;;20.48;15.88;;;;;;;;;;10099942;28;20452;-74
2024/02/01 11:35:56;;;;;;;23.25;15.32;;;;;;;;;;10100438;28;20037;-74
2024/02/01 11:40:48;;;;;;;19.58;16.08;;;;;;;;;;10098335;28;20073;-76
2024/02/01 11:45:40;;;;;;;24.42;16.50;;;;;;;;;;10099953;28;20102;-75
2024/02/01 11:50:32;;;;;;;22.25;18.27;;;;;;;;;;10100310;28;20044;-73
2024/02/01 11:55:29;;;;;;;24.70;18.00;;;;;;;;;;10096239;28;20103;-75
2024/02/01 12:00:22;;;;;;;25.85;20.67;;;;;;;;;;10099368;28;20044;-73
2024/02/01 12:05:34;;;;;;;24.13;19.02;;;;;;;;;;10099332;28;20431;-73
2024/02/01 12:10:30;;;;;;;31.58;17.88;;;;;;;;;;10097308;28;20045;-74
2024/02/01 12:15:23;;;;;;;25.00;16.55;;;;;;;;;;10101172;28;20436;-74
2024/02/01 12:20:16;;;;;;;26.55;17.58;;;;;;;;;;10105837;28;20045;-74
2024/02/01 12:25:15;;;;;;;23.17;18.17;;;;;;;;;;10107355;28;20361;-74
2024/02/01 12:30:11;;;;;;;21.30;18.55;;;;;;;;;;10105119;28;20067;-73
2024/02/01 12:35:08;;;;;;;26.48;20.35;;;;;;;;;;10104024;28;20065;-74
2024/02/01 12:40:00;;;;;;;25.45;19.45;;;;;;;;;;10101316;28;20056;-76
2024/02/01 12:44:52;;;;;;;25.77;18.95;;;;;;;;;;10105137;28;20430;-75
2024/02/01 12:49:44;;;;;;;33.13;22.83;;;;;;;;;;10105526;28;20037;-77
2024/02/01 12:54:40;;;;;;;30.35;20.25;;;;;;;;;;10105815;28;20045;-80
2024/02/01 12:59:36;;;;;;;25.52;18.65;;;;;;;;;;10105761;28;20045;-79
2024/02/01 13:04:28;;;;;;;26.27;19.63;;;;;;;;;;10104848;28;20049;-75
2024/02/01 13:09:31;;;;;;;25.10;18.27;;;;;;;;;;10103568;28;20139;-75
2024/02/01 13:14:28;;;;;;;31.13;20.40;;;;;;;;;;10104563;28;20037;-75
2024/02/01 13:19:24;;;;;;;35.50;20.85;;;;;;;;;;10098192;28;20041;-75
2024/02/01 13:24:16;;;;;;;31.05;21.85;;;;;;;;;;10101574;28;20049;-73
2024/02/01 13:29:13;;;;;;;33.28;27.52;;;;;;;;;;10099683;28;20093;-74
2024/02/01 13:34:05;;;;;;;26.75;21.10;;;;;;;;;;10091605;28;20056;-74
2024/02/01 13:38:57;;;;;;;25.67;21.58;;;;;;;;;;10097791;28;20075;-75
2024/02/01 13:43:49;;;;;;;32.45;24.35;;;;;;;;;;10103078;28;20063;-74
2024/02/01 13:48:41;;;;;;;32.53;23.42;;;;;;;;;;10098048;28;20049;-74
2024/02/01 13:53:37;;;;;;;30.30;22.42;;;;;;;;;;10098979;28;20114;-73
2024/02/01 13:58:30;;;;;;;31.10;23.23;;;;;;;;;;10100086;28;20371;-74
2024/02/01 14:03:25;;;;;;;28.98;23.25;;;;;;;;;;10102712;28;20068;-75
2024/02/01 14:08:19;;;;;;;26.73;21.77;;;;;;;;;;10092040;28;20051;-75
2024/02/01 14:13:12;;;;;;;28.75;23.35;;;;;;;;;;10090770;28;20483;-75
2024/02/01 14:18:04;;;;;;;31.30;22.25;;;;;;;;;;10098557;28;20398;-74
2024/02/01 14:22:59;;;;;;;33.63;27.05;;;;;;;;;;10099793;28;20048;-74
2024/02/01 14:27:54;;;;;;;30.48;24.23;;;;;;;;;;10100980;28;20110;-74
2024/02/01 14:32:46;;;;;;;30.23;19.83;;;;;;;;;;10100287;28;20052;-76
2024/02/01 14:37:38;;;;;;;39.47;23.27;;;;;;;;;;10097986;28;20099;-74
2024/02/01 14:42:30;;;;;;;23.00;18.48;;;;;;;;;;10101707;28;20068;-73
2024/02/01 14:47:22;;;;;;;23.00;17.92;;;;;;;;;;10101752;28;20045;-74
2024/02/01 14:52:16;;;;;;;22.63;17.75;;;;;;;;;;10097520;28;20136;-74
2024/02/01 14:57:08;;;;;;;22.40;17.63;;;;;;;;;;10098474;28;20051;-73
2024/02/01 15:02:00;;;;;;;26.02;19.80;;;;;;;;;;10100685;28;20464;-74
2024/02/01 15:06:53;;;;;;;27.10;20.83;;;;;;;;;;10098666;28;20041;-74
2024/02/01 15:11:45;;;;;;;30.38;22.85;;;;;;;;;;10097323;28;20533;-73
2024/02/01 15:16:37;;;;;;;32.15;24.77;;;;;;;;;;10100681;28;20033;-74
2024/02/01 15:21:30;;;;;;;29.52;24.10;;;;;;;;;;10098538;28;20045;-73
2024/02/01 15:26:22;;;;;;;29.70;23.58;;;;;;;;;;10099458;28;20119;-75
2024/02/01 15:31:19;;;;;;;31.92;24.48;;;;;;;;;;10100089;28;20453;-74
2024/02/01 15:36:11;;;;;;;45.22;25.85;;;;;;;;;;10088433;28;20033;-74
2024/02/01 15:41:05;;;;;;;30.73;26.02;;;;;;;;;;10095560;28;20163;-75
2024/02/01 15:45:57;;;;;;;28.65;22.38;;;;;;;;;;10100694;28;20488;-76
2024/02/01 15:50:49;;;;;;;37.17;24.15;;;;;;;;;;10103687;28;20051;-74
2024/02/01 15:55:41;;;;;;;35.22;24.40;;;;;;;;;;10107803;28;20037;-75
2024/02/01 16:00:33;;;;;;;33.67;25.05;;;;;;;;;;10107697;28;20333;-75
2024/02/01 16:05:49;;;;;;;32.33;23.77;;;;;;;;;;10107462;28;20045;-75
2024/02/01 16:10:44;;;;;;;27.23;23.17;;;;;;;;;;10103367;28;20098;-76
2024/02/01 16:15:36;;;;;;;35.55;31.70;;;;;;;;;;10107034;28;20120;-75
2024/02/01 16:20:42;;;;;;;34.15;26.60;;;;;;;;;;10105845;28;20131;-76
2024/02/01 16:25:35;;;;;;;35.08;27.35;;;;;;;;;;10105660;28;20053;-74
2024/02/01 16:30:56;;;;;;;35.50;30.50;;;;;;;;;;10107165;28;20044;-72
2024/02/01 16:35:52;;;;;;;31.17;25.45;;;;;;;;;;10106412;28;20045;-72
2024/02/01 16:40:45;;;;;;;30.27;24.30;;;;;;;;;;10102760;28;20076;-72
2024/02/01 16:45:37;;;;;;;32.60;26.63;;;;;;;;;;10105103;28;20045;-72
2024/02/01 16:50:48;;;;;;;33.30;28.65;;;;;;;;;;10105460;28;20068;-72
2024/02/01 16:55:49;;;;;;;36.53;31.20;;;;;;;;;;10102214;28;20049;-72
2024/02/01 17:00:42;;;;;;;36.15;30.60;;;;;;;;;;10103633;28;20045;-72
2024/02/01 17:05:35;;;;;;;35.92;31.10;;;;;;;;;;10106516;28;20451;-72
2024/02/01 17:10:46;;;;;;;39.75;29.23;;;;;;;;;;10103229;28;20384;-72
2024/02/01 17:15:38;;;;;;;36.35;28.95;;;;;;;;;;10104744;28;20041;-72
2024/02/01 17:20:30;;;;;;;43.03;29.70;;;;;;;;;;10104632;28;20102;-72
2024/02/01 17:25:43;;;;;;;38.05;30.92;;;;;;;;;;10105347;28;20048;-72
2024/02/01 17:31:07;;;;;;;38.63;29.33;;;;;;;;;;10074076;28;20045;-72
2024/02/01 17:36:03;;;;;;;35.22;29.17;;;;;;;;;;10091963;28;20045;-72
2024/02/01 17:40:55;;;;;;;40.65;31.52;;;;;;;;;;10106636;28;20422;-76
2024/02/01 17:45:51;;;;;;;55.03;38.10;;;;;;;;;;10105053;28;20056;-71
2024/02/01 17:50:43;;;;;;;58.25;44.78;;;;;;;;;;10095672;28;20051;-71
2024/02/01 17:55:51;;;;;;;41.53;33.25;;;;;;;;;;10103242;28;20388;-70
2024/02/01 18:00:42;;;;;;;49.45;38.78;;;;;;;;;;10097854;28;20041;-72
2024/02/01 18:05:34;;;;;;;44.47;35.97;;;;;;;;;;10101647;28;20036;-70
2024/02/01 18:10:38;;;;;;;104.00;72.82;;;;;;;;;;10104057;28;20049;-71
2024/02/01 18:16:01;;;;;;;59.20;41.20;;;;;;;;;;10091097;28;20082;-71
2024/02/01 18:20:55;;;;;;;49.13;36.88;;;;;;;;;;10096774;28;20486;-71
2024/02/01 18:25:48;;;;;;;40.97;34.65;;;;;;;;;;10102590;28;20087;-71
2024/02/01 18:30:40;;;;;;;39.55;31.45;;;;;;;;;;10096042;28;20036;-72
2024/02/01 18:35:35;;;;;;;39.92;30.88;;;;;;;;;;10100421;28;20705;-72
2024/02/01 18:40:33;;;;;;;41.65;34.45;;;;;;;;;;10100629;28;20136;-72
2024/02/01 18:45:34;;;;;;;37.38;29.70;;;;;;;;;;10101677;28;20087;-72
2024/02/01 18:50:33;;;;;;;38.45;29.70;;;;;;;;;;10100450;28;20154;-71
2024/02/01 18:55:25;;;;;;;46.75;35.85;;;;;;;;;;10098267;28;20072;-71
2024/02/01 19:00:51;;;;;;;39.03;29.70;;;;;;;;;;10101518;28;20107;-72
2024/02/01 19:05:43;;;;;;;45.20;30.20;;;;;;;;;;10068288;28;20067;-74
2024/02/01 19:10:38;;;;;;;28.45;24.55;;;;;;;;;;10098041;28;20104;-74
2024/02/01 19:15:49;;;;;;;31.80;24.80;;;;;;;;;;10097117;28;20048;-73
2024/02/01 19:20:43;;;;;;;36.70;27.52;;;;;;;;;;10095829;28;20041;-76
2024/02/01 19:25:35;;;;;;;25.85;19.40;;;;;;;;;;10100427;28;20064;-75
2024/02/01 19:30:45;;;;;;;27.50;20.45;;;;;;;;;;10103176;28;20059;-77
2024/02/01 19:35:37;;;;;;;;;;;;;;;;;;10107512;28;20075;-76
2024/02/01 19:40:31;;;;;;;39.55;23.25;;;;;;;;;;10107355;28;19929;-75
2024/02/01 19:45:23;;;;;;;26.70;21.17;;;;;;;;;;10108898;28;20076;-76
2024/02/01 19:50:16;;;;;;;29.50;23.05;;;;;;;;;;10108818;28;20124;-75
2024/02/01 19:55:08;;;;;;;34.47;27.70;;;;;;;;;;10099423;28;20045;-75
2024/02/01 20:00:00;;;;;;;57.35;40.50;;;;;;;;;;10099268;28;21777;-75
2024/02/01 20:05:03;;;;;;;36.40;28.73;;;;;;;;;;10103675;28;20086;-75
2024/02/01 20:09:55;;;;;;;44.88;34.58;;;;;;;;;;10086012;28;20050;-74
2024/02/01 20:14:48;;;;;;;44.15;39.33;;;;;;;;;;10089597;28;20041;-75
2024/02/01 20:19:45;;;;;;;40.90;33.40;;;;;;;;;;10097292;28;20128;-74
2024/02/01 20:24:39;;;;;;;47.33;34.65;;;;;;;;;;10085865;28;20053;-75
2024/02/01 20:29:33;;;;;;;33.67;29.65;;;;;;;;;;10092921;28;20456;-75
2024/02/01 20:34:36;;;;;;;41.40;32.33;;;;;;;;;;10107774;28;20079;-75
2024/02/01 20:39:34;;;;;;;43.20;31.58;;;;;;;;;;10094892;28;20088;-78
2024/02/01 20:44:36;;;;;;;29.98;25.35;;;;;;;;;;10107597;28;20049;-75
2024/02/01 20:49:30;;;;;;;28.48;21.98;;;;;;;;;;10080849;28;20045;-75
2024/02/01 20:54:21;;;;;;;35.33;27.27;;;;;;;;;;10092198;28;20037;-74
2024/02/01 20:59:46;;;;;;;34.47;26.67;;;;;;;;;;10094359;28;20132;-74
2024/02/01 21:04:38;;;;;;;27.65;21.17;;;;;;;;;;10077889;28;20041;-75
2024/02/01 21:09:40;;;;;;;23.08;18.67;;;;;;;;;;10080552;28;20049;-75
2024/02/01 21:14:44;;;;;;;29.60;24.38;;;;;;;;;;10095716;28;20155;-75
2024/02/01 21:19:36;;;;;;;28.95;22.70;;;;;;;;;;10085475;28;20404;-74
2024/02/01 21:24:28;;;;;;;24.33;18.77;;;;;;;;;;10096487;28;20128;-75
2024/02/01 21:29:23;;;;;;;25.88;16.35;;;;;;;;;;10103745;28;20044;-74
2024/02/01 21:34:18;;;;;;;27.38;19.17;;;;;;;;;;10084074;28;20052;-76
2024/02/01 21:39:27;;;;;;;23.75;17.90;;;;;;;;;;10095774;28;20127;-71
2024/02/01 21:44:19;;;;;;;24.58;18.42;;;;;;;;;;10104046;28;20095;-75
2024/02/01 21:49:12;;;;;;;22.90;17.58;;;;;;;;;;10079170;28;20151;-76
2024/02/01 21:54:04;;;;;;;22.63;17.40;;;;;;;;;;10105158;28;20136;-76
2024/02/01 21:58:57;;;;;;;29.15;21.40;;;;;;;;;;10093242;28;20433;-75
2024/02/01 22:03:49;;;;;;;24.45;17.48;;;;;;;;;;10096511;28;20577;-77
2024/02/01 22:08:41;;;;;;;20.42;16.45;;;;;;;;;;10091782;28;20411;-76
2024/02/01 22:13:33;;;;;;;18.92;15.35;;;;;;;;;;10105455;28;20048;-76
2024/02/01 22:18:25;;;;;;;25.90;17.00;;;;;;;;;;10104842;28;20502;-76
2024/02/01 22:23:17;;;;;;;23.90;15.98;;;;;;;;;;10097180;28;20432;-76
2024/02/01 22:28:10;;;;;;;21.52;15.82;;;;;;;;;;10088297;28;20048;-77
2024/02/01 22:33:02;;;;;;;22.45;16.55;;;;;;;;;;10091872;28;20376;-76
2024/02/01 22:37:54;;;;;;;22.35;15.27;;;;;;;;;;10103990;28;20053;-76
2024/02/01 22:42:46;;;;;;;18.15;12.27;;;;;;;;;;10103999;28;20059;-76
2024/02/01 22:47:38;;;;;;;20.38;13.50;;;;;;;;;;10083821;28;20408;-76
2024/02/01 22:52:30;;;;;;;19.48;12.90;;;;;;;;;;10085777;28;20098;-75
2024/02/01 22:57:22;;;;;;;20.27;13.30;;;;;;;;;;10104075;28;20041;-76
2024/02/01 23:02:14;;;;;;;19.45;14.25;;;;;;;;;;10102286;28;20091;-77
2024/02/01 23:07:06;;;;;;;17.58;11.65;;;;;;;;;;10077416;28;20110;-76
2024/02/01 23:11:58;;;;;;;20.27;12.70;;;;;;;;;;10096880;28;20755;-76
2024/02/01 23:16:50;;;;;;;19.30;11.88;;;;;;;;;;10084647;28;20131;-76
2024/02/01 23:21:42;;;;;;;18.85;13.68;;;;;;;;;;10104290;28;20041;-76
2024/02/01 23:26:35;;;;;;;18.67;12.95;;;;;;;;;;10100771;28;20056;-76
2024/02/01 23:31:27;;;;;;;19.00;12.18;;;;;;;;;;10101178;28;20073;-75
2024/02/01 23:36:18;;;;;;;17.90;11.27;;;;;;;;;;10100497;28;20090;-76
2024/02/01 23:41:11;;;;;;;18.50;11.57;;;;;;;;;;10098557;28;20181;-76
2024/02/01 23:46:03;;;;;;;16.73;12.50;;;;;;;;;;10100551;28;20136;-76
2024/02/01 23:50:55;;;;;;;18.63;12.07;;;;;;;;;;10100016;28;20329;-76
2024/02/01 23:55:47;;;;;;;17.48;12.73;;;;;;;;;;10099938;28;20037;-75
